createdAt,value
2018-02-24T00:01:03.235Z,10.90
2018-02-24T00:06:03.903Z,10.90
2018-02-24T00:11:03.971Z,10.90
2018-02-24T00:16:03.602Z,10.90
2018-02-24T00:21:03.374Z,10.90
2018-02-24T00:26:04.023Z,10.90
2018-02-24T00:31:03.702Z,10.90
2018-02-24T00:36:03.380Z,10.90
2018-02-24T00:41:03.490Z,10.90
2018-02-24T00:46:04.091Z,10.90
2018-02-24T00:51:03.724Z,10.90
2018-02-24T00:56:03.358Z,10.90
2018-02-24T01:01:03.969Z,10.90
2018-02-24T01:06:03.662Z,10.90
2018-02-24T01:11:03.754Z,10.90
2018-02-24T01:16:03.410Z,10.90
2018-02-24T01:21:03.141Z,10.90
2018-02-24T01:26:03.744Z,10.90
2018-02-24T01:31:03.406Z,10.90
2018-02-24T01:36:04.019Z,10.90
2018-02-24T01:41:04.103Z,10.90
2018-02-24T01:46:03.732Z,10.90
2018-02-24T01:51:03.391Z,10.90
2018-02-24T01:56:03.979Z,10.90
2018-02-24T02:01:03.631Z,10.90
2018-02-24T02:06:03.272Z,10.90
2018-02-24T02:11:03.368Z,10.90
2018-02-24T02:16:04.017Z,10.90
2018-02-24T02:21:03.935Z,10.90
2018-02-24T02:26:03.415Z,10.90
2018-02-24T02:31:03.120Z,10.90
2018-02-24T02:36:03.747Z,10.90
2018-02-24T02:41:03.824Z,10.90
2018-02-24T02:46:03.504Z,10.90
2018-02-24T02:51:03.184Z,10.90
2018-02-24T02:56:03.776Z,10.90
2018-02-24T03:01:03.375Z,10.90
2018-02-24T03:06:03.971Z,10.90
2018-02-24T03:11:04.019Z,10.90
2018-02-24T03:16:03.687Z,10.90
2018-02-24T03:21:03.414Z,10.90
2018-02-24T03:26:03.995Z,10.90
2018-02-24T03:31:03.606Z,10.90
2018-02-24T03:36:03.239Z,10.90
2018-02-24T03:41:03.260Z,10.90
2018-02-24T03:46:03.862Z,10.90
2018-02-24T03:51:03.550Z,10.90
2018-02-24T03:56:03.176Z,10.90
2018-02-24T04:01:03.811Z,10.90
2018-02-24T04:06:03.433Z,10.90
2018-02-24T04:11:03.470Z,10.90
2018-02-24T04:16:03.172Z,10.90
2018-02-24T04:21:03.899Z,10.90
2018-02-24T04:26:03.540Z,10.90
2018-02-24T04:31:03.228Z,10.90
2018-02-24T04:36:03.896Z,10.90
2018-02-24T04:41:04.006Z,10.90
2018-02-24T04:46:03.619Z,10.90
2018-02-24T04:51:03.282Z,10.90
2018-02-24T04:56:03.951Z,10.90
2018-02-24T05:01:03.647Z,10.90
2018-02-24T05:06:03.325Z,10.90
2018-02-24T05:11:03.435Z,10.90
2018-02-24T05:16:04.067Z,10.90
2018-02-24T05:21:03.823Z,10.90
2018-02-24T05:26:03.124Z,10.90
2018-02-24T05:31:03.718Z,10.90
2018-02-24T05:36:03.389Z,10.90
2018-02-24T05:41:03.472Z,10.90
2018-02-24T05:46:03.161Z,10.90
2018-02-24T05:51:03.819Z,10.90
2018-02-24T05:56:03.482Z,10.90
2018-02-24T06:01:04.069Z,10.90
2018-02-24T06:06:03.688Z,10.90
2018-02-24T06:11:03.698Z,10.90
2018-02-24T06:16:03.292Z,10.90
2018-02-24T06:21:04.070Z,10.90
2018-02-24T06:26:03.714Z,10.90
2018-02-24T06:31:03.341Z,10.90
2018-02-24T06:36:03.936Z,10.90
2018-02-24T06:46:03.219Z,10.90
2018-02-24T06:51:03.863Z,10.90
2018-02-24T06:56:03.464Z,10.90
2018-02-24T07:01:03.184Z,10.90
2018-02-24T07:06:03.802Z,10.90
2018-02-24T07:11:03.883Z,10.90
2018-02-24T07:16:03.882Z,10.90
2018-02-24T07:21:03.594Z,10.90
2018-02-24T07:26:03.343Z,10.90
2018-02-24T07:31:03.874Z,10.90
2018-02-24T07:36:03.559Z,10.90
2018-02-24T07:41:03.631Z,10.90
2018-02-24T07:46:03.494Z,10.90
2018-02-24T07:51:03.162Z,10.90
2018-02-24T07:56:03.823Z,10.90
2018-02-24T08:01:03.511Z,10.90
2018-02-24T08:06:03.141Z,10.90
2018-02-24T08:11:03.172Z,10.90
2018-02-24T08:16:03.833Z,10.90
2018-02-24T08:21:03.599Z,10.90
2018-02-24T08:26:03.222Z,10.90
2018-02-24T08:31:03.886Z,10.90
2018-02-24T08:36:03.504Z,10.90
2018-02-24T08:41:03.542Z,10.90
2018-02-24T08:46:03.185Z,10.90
2018-02-24T08:51:03.805Z,10.90
2018-02-24T08:56:03.436Z,10.90
2018-02-24T09:01:04.068Z,10.90
2018-02-24T09:06:03.760Z,10.90
2018-02-24T09:11:03.839Z,10.90
2018-02-24T09:16:03.435Z,10.90
2018-02-24T09:21:03.396Z,10.90
2018-02-24T09:26:04.023Z,10.90
2018-02-24T09:31:03.682Z,10.90
2018-02-24T09:36:03.345Z,10.90
2018-02-24T09:41:03.414Z,10.90
2018-02-24T09:46:04.076Z,10.90
2018-02-24T09:51:03.790Z,10.90
2018-02-24T09:56:03.437Z,10.90
2018-02-24T10:01:04.061Z,10.90
2018-02-24T10:06:03.657Z,10.90
2018-02-24T10:11:03.709Z,10.90
2018-02-24T10:16:03.363Z,10.90
2018-02-24T10:21:03.125Z,10.90
2018-02-24T10:26:03.764Z,10.90
2018-02-24T10:31:03.448Z,10.90
2018-02-24T10:36:03.119Z,10.90
2018-02-24T10:41:03.203Z,10.90
2018-02-24T10:46:03.863Z,10.90
2018-02-24T10:51:03.556Z,10.90
2018-02-24T10:56:03.215Z,10.90
2018-02-24T11:01:03.811Z,10.90
2018-02-24T11:06:03.428Z,10.90
2018-02-24T11:11:03.512Z,10.90
2018-02-24T11:16:03.181Z,10.90
2018-02-24T11:21:03.892Z,10.90
2018-02-24T11:26:03.507Z,10.90
2018-02-24T11:31:03.166Z,10.90
2018-02-24T11:36:03.754Z,10.90
2018-02-24T11:41:03.813Z,10.90
2018-02-24T11:46:03.470Z,10.90
2018-02-24T11:51:03.140Z,10.90
2018-02-24T11:56:03.777Z,10.90
2018-02-24T12:01:03.483Z,10.90
2018-02-24T12:06:03.143Z,10.90
2018-02-24T12:11:03.211Z,10.90
2018-02-24T12:16:03.839Z,10.90
2018-02-24T12:21:03.616Z,10.90
2018-02-24T12:26:03.353Z,10.90
2018-02-24T12:31:03.966Z,10.90
2018-02-24T12:36:03.601Z,10.90
2018-02-24T12:41:03.680Z,10.90
2018-02-24T12:46:03.367Z,10.90
2018-02-24T12:51:04.039Z,10.90
2018-02-24T12:56:03.829Z,10.90
2018-02-24T13:01:03.284Z,10.90
2018-02-24T13:06:03.896Z,10.90
2018-02-24T13:11:04.108Z,10.90
2018-02-24T13:16:03.718Z,10.90
2018-02-24T13:21:03.417Z,10.90
2018-02-24T13:26:04.027Z,10.90
2018-02-24T13:31:03.710Z,10.90
2018-02-24T13:36:03.300Z,10.90
2018-02-24T13:41:03.552Z,10.90
2018-02-24T13:46:03.243Z,10.90
2018-02-24T13:51:04.005Z,10.90
2018-02-24T13:56:03.665Z,10.90
2018-02-24T14:01:03.327Z,10.90
2018-02-24T14:06:07.552Z,10.90
2018-02-24T14:11:03.531Z,10.90
2018-02-24T14:16:03.191Z,10.90
2018-02-24T14:21:03.935Z,10.90
2018-02-24T14:26:04.979Z,10.90
2018-02-24T14:31:04.069Z,10.90
2018-02-24T14:36:03.630Z,10.90
2018-02-24T14:41:03.949Z,10.90
2018-02-24T14:46:03.272Z,10.90
2018-02-24T14:51:04.348Z,10.90
2018-02-24T14:56:04.110Z,10.90
2018-02-24T15:01:03.534Z,10.90
2018-02-24T15:06:03.160Z,10.90
2018-02-24T15:11:03.186Z,10.90
2018-02-24T15:16:05.189Z,10.90
2018-02-24T15:21:03.925Z,10.90
2018-02-24T15:26:03.824Z,10.90
2018-02-24T15:31:03.606Z,10.90
2018-02-24T15:36:03.698Z,10.90
2018-02-24T15:41:03.534Z,10.90
2018-02-24T15:46:04.638Z,10.90
2018-02-24T15:51:03.591Z,10.90
2018-02-24T15:56:03.911Z,10.90
2018-02-24T16:01:04.071Z,10.90
2018-02-24T16:06:04.234Z,7.55
2018-02-24T16:07:25.702Z,7.22
2018-02-24T16:11:03.718Z,6.94
2018-02-24T16:11:47.197Z,6.94
2018-02-24T16:43:07.927Z,-0.68
2018-02-24T16:46:30.096Z,6.70
2018-02-24T16:49:08.055Z,6.91
2018-02-24T16:51:04.337Z,6.91
2018-02-24T16:52:00.029Z,6.91
2018-02-24T16:56:03.877Z,6.91
2018-02-24T17:01:05.408Z,6.91
2018-02-24T17:06:05.390Z,6.47
2018-02-24T17:15:36.530Z,8.28
2018-02-24T17:16:03.771Z,8.28
2018-02-24T17:21:04.139Z,8.04
2018-02-24T17:26:04.664Z,8.18
2018-02-24T17:31:04.381Z,7.10
2018-02-24T17:36:04.198Z,7.14
2018-02-24T17:41:04.010Z,7.19
2018-02-24T17:41:08.539Z,7.19
2018-02-24T17:41:25.390Z,7.19
2018-02-24T17:43:48.393Z,15.25
2018-02-24T17:46:04.461Z,13.59
2018-02-24T17:50:55.458Z,9.17
2018-02-24T17:51:04.380Z,9.17
2018-02-24T17:56:04.410Z,7.72
2018-02-24T18:01:08.588Z,7.73
2018-02-24T18:06:04.040Z,7.44
2018-02-24T18:11:04.220Z,7.35
2018-02-24T18:16:03.885Z,7.38
2018-02-24T18:21:03.567Z,7.41
2018-02-24T18:26:04.285Z,7.30
2018-02-24T18:31:03.944Z,7.19
2018-02-24T18:36:03.605Z,7.35
2018-02-24T18:41:03.594Z,7.26
2018-02-24T18:46:04.267Z,7.30
2018-02-24T18:51:03.872Z,7.29
2018-02-24T18:56:03.609Z,7.27
2018-02-24T19:01:04.236Z,7.34
2018-02-24T19:06:03.894Z,7.29
2018-02-24T19:11:03.904Z,7.25
2018-02-24T19:16:03.542Z,7.28
2018-02-24T19:21:04.235Z,7.30
2018-02-24T19:26:03.908Z,7.32
2018-02-24T19:31:03.591Z,7.36
2018-02-24T19:32:53.701Z,7.36
2018-02-24T19:36:04.194Z,7.38
2018-02-24T19:41:04.183Z,7.41
2018-02-24T19:46:03.830Z,7.47
2018-02-24T19:51:03.513Z,7.46
2018-02-24T19:56:04.214Z,7.49
2018-02-24T20:01:03.900Z,7.54
2018-02-24T20:06:03.446Z,7.57
2018-02-24T20:11:03.482Z,7.58
2018-02-24T20:16:04.145Z,7.63
2018-02-24T20:21:04.066Z,7.64
2018-02-24T20:26:03.525Z,7.65
2018-02-24T20:31:04.107Z,7.65
2018-02-24T20:36:03.769Z,7.69
2018-02-24T20:41:03.817Z,8.13
2018-02-24T20:46:04.373Z,8.13
2018-02-24T20:51:04.031Z,8.12
2018-02-24T20:56:03.729Z,8.14
2018-02-24T21:01:05.310Z,8.44
2018-02-24T21:06:03.503Z,8.39
2018-02-24T21:11:03.518Z,8.16
2018-02-24T21:16:04.170Z,8.17
2018-02-24T21:21:03.861Z,8.14
2018-02-24T21:26:03.538Z,8.10
2018-02-24T21:31:04.217Z,8.03
2018-02-24T21:36:04.082Z,7.97
2018-02-24T21:41:04.467Z,7.90
2018-02-24T21:46:03.799Z,7.84
2018-02-24T21:51:03.487Z,7.79
2018-02-24T21:56:04.223Z,7.73
2018-02-24T22:01:03.804Z,7.66
2018-02-24T22:06:03.745Z,7.63
2018-02-24T22:11:03.778Z,7.56
2018-02-24T22:16:03.490Z,7.53
2018-02-24T22:21:04.198Z,7.46
2018-02-24T22:26:03.888Z,7.43
2018-02-24T22:31:03.616Z,7.41
2018-02-24T22:36:03.513Z,7.38
2018-02-24T22:41:03.519Z,7.32
2018-02-24T22:46:04.212Z,7.22
2018-02-24T22:51:03.892Z,7.15
2018-02-24T22:56:03.522Z,7.16
2018-02-24T23:01:04.193Z,7.18
2018-02-24T23:06:04.084Z,7.18
2018-02-24T23:11:04.326Z,7.15
2018-02-24T23:16:03.922Z,7.13
2018-02-24T23:21:03.650Z,7.12
2018-02-24T23:26:03.533Z,7.10
2018-02-24T23:31:04.150Z,7.08
2018-02-24T23:36:03.986Z,7.06
2018-02-24T23:41:04.055Z,7.02
2018-02-24T23:46:03.720Z,7.01
2018-02-24T23:51:04.340Z,6.98
2018-02-24T23:56:03.929Z,6.96
